Archival Weather

Chicago O'Hare International

Chicago, Illinois (KORD)

Report from: Thursday, November 24, 2022 10:51 AM CST
Current time: Sunday, December 4, 2022 6:17 AM CST

Current weather
Weather history
Weather forecast

Temperature10.0°C (50.0°F)
Wind chill8.0°C (46.3°F)
Dew point0.6°C (33.1°F)
Winds 8 kts (4.1 m/s, 9.2 mph) Southwest (220°)
Visibility10 mi. (16.1 km)
Clouds Ceiling: Broken clouds 7,000 ft. (2,134 m)
Broken clouds 9,500 ft. (2,896 m)
Broken clouds 25,000 ft. (7,620 m)
Altimeter30.12 in.Hg (1020 mB)
Relative humidity52 %
Density altitude-728 ft. (-222 m)
Sea-level pressure102.0 kPa (1020 mB, 30.12 in.Hg)
Remarks System requires maintenance
Automated weather observing station with precipitation discriminator
Flight conditions Visual Meteorological Conditions
Raw dataKORD 241651Z 22008KT 10SM BKN070 BKN095 BKN250 10/01 A3012 RMK AO2 SLP201 T01000006 $
An error has occurred. This application may no longer respond until reloaded. Reload 🗙